RYR23ML LIMF-LICT
Flight info
| Callsign | RYR23ML |
|---|---|
| Flight time | 1h 23m |
| Altitude | 37000 |
| Route | LAGEN DCT EVROG DCT BAKRO DCT VELAD DCT TINTO DCT POKAV DCT BETOT DCT RUVIP DCT RONAB/N0338F190 M740 ADUKA |
| Aircraft | B738/M-SDE2E3FGHIRWXY/LB1 |
Departure
| Time | 2026-05-08 14:06 |
|---|---|
| Airport | Turin Airport (LIMF) |
Arrival
| Time | 2026-05-08 15:30 |
|---|---|
| Airport | Vincenzo Florio Airport Trapani-Birgi (LICT) |
| Time | Latitude | Longitude | Altitude | Speed | Heading |
|---|---|---|---|---|---|
| 2026-05-08 13:35 | 45.19322 | 7.64519 | 991 ft | 0 kts | 257° |
| 2026-05-08 13:54 | 45.19326 | 7.64541 | 992 ft | 4 kts | 259° |
| 2026-05-08 13:55 | 45.19330 | 7.64579 | 989 ft | 4 kts | 265° |
| 2026-05-08 13:55 | 45.19330 | 7.64617 | 990 ft | 4 kts | 275° |
| 2026-05-08 13:55 | 45.19311 | 7.64671 | 993 ft | 1 kts | 2° |
| 2026-05-08 13:56 | 45.19310 | 7.64671 | 993 ft | 1 kts | 2° |
| 2026-05-08 13:58 | 45.19325 | 7.64672 | 990 ft | 6 kts | 2° |
| 2026-05-08 13:59 | 45.19386 | 7.64675 | 985 ft | 10 kts | 2° |
| 2026-05-08 13:59 | 45.19462 | 7.64680 | 985 ft | 12 kts | 2° |
| 2026-05-08 13:59 | 45.19545 | 7.64685 | 991 ft | 12 kts | 2° |
| 2026-05-08 13:59 | 45.19627 | 7.64691 | 988 ft | 12 kts | 2° |
| 2026-05-08 14:00 | 45.19705 | 7.64695 | 988 ft | 11 kts | 3° |
| 2026-05-08 14:00 | 45.19782 | 7.64684 | 984 ft | 11 kts | 351° |
| 2026-05-08 14:00 | 45.19856 | 7.64682 | 984 ft | 11 kts | 3° |
| 2026-05-08 14:00 | 45.19929 | 7.64686 | 984 ft | 10 kts | 2° |
| 2026-05-08 14:01 | 45.19999 | 7.64691 | 987 ft | 10 kts | 4° |
| 2026-05-08 14:01 | 45.20104 | 7.64693 | 987 ft | 19 kts | 4° |
| 2026-05-08 14:01 | 45.20241 | 7.64705 | 984 ft | 20 kts | 2° |
| 2026-05-08 14:01 | 45.20376 | 7.64714 | 988 ft | 19 kts | 1° |
| 2026-05-08 14:02 | 45.20508 | 7.64722 | 985 ft | 19 kts | 2° |
| 2026-05-08 14:02 | 45.20634 | 7.64730 | 993 ft | 18 kts | 2° |
| 2026-05-08 14:02 | 45.20757 | 7.64737 | 984 ft | 17 kts | 2° |
| 2026-05-08 14:02 | 45.20874 | 7.64747 | 984 ft | 17 kts | 2° |
| 2026-05-08 14:03 | 45.20991 | 7.64753 | 984 ft | 18 kts | 3° |
| 2026-05-08 14:03 | 45.21120 | 7.64761 | 984 ft | 18 kts | 0° |
| 2026-05-08 14:03 | 45.21246 | 7.64768 | 984 ft | 18 kts | 2° |
| 2026-05-08 14:03 | 45.21362 | 7.64777 | 984 ft | 14 kts | 3° |
| 2026-05-08 14:04 | 45.21445 | 7.64783 | 984 ft | 9 kts | 3° |
| 2026-05-08 14:04 | 45.21504 | 7.64803 | 984 ft | 9 kts | 27° |
| 2026-05-08 14:04 | 45.21530 | 7.64834 | 984 ft | 0 kts | 52° |
| 2026-05-08 14:05 | 45.21540 | 7.64859 | 986 ft | 9 kts | 68° |
| 2026-05-08 14:05 | 45.21548 | 7.64964 | 982 ft | 12 kts | 93° |
| 2026-05-08 14:05 | 45.21518 | 7.65058 | 985 ft | 11 kts | 169° |
| 2026-05-08 14:05 | 45.21437 | 7.65049 | 984 ft | 13 kts | 184° |
| 2026-05-08 14:06 | 45.21208 | 7.65034 | 983 ft | 65 kts | 182° |
| 2026-05-08 14:06 | 45.20529 | 7.64993 | 983 ft | 127 kts | 182° |
| 2026-05-08 14:06 | 45.19474 | 7.64931 | 1061 ft | 169 kts | 185° |
| 2026-05-08 14:06 | 45.18312 | 7.64828 | 1783 ft | 169 kts | 183° |
| 2026-05-08 14:07 | 45.17102 | 7.64730 | 2372 ft | 180 kts | 180° |
| 2026-05-08 14:07 | 45.15805 | 7.64661 | 2887 ft | 191 kts | 181° |
| 2026-05-08 14:07 | 45.14430 | 7.64558 | 3287 ft | 208 kts | 181° |
| 2026-05-08 14:07 | 45.12907 | 7.64464 | 3455 ft | 229 kts | 181° |
| 2026-05-08 14:08 | 45.11256 | 7.64366 | 3804 ft | 244 kts | 182° |
| 2026-05-08 14:08 | 45.09541 | 7.64261 | 4434 ft | 248 kts | 182° |
| 2026-05-08 14:08 | 45.07810 | 7.64155 | 5242 ft | 248 kts | 182° |
| 2026-05-08 14:08 | 45.06086 | 7.64050 | 6006 ft | 249 kts | 182° |
| 2026-05-08 14:09 | 45.04345 | 7.63944 | 6700 ft | 252 kts | 182° |
| 2026-05-08 14:09 | 45.02581 | 7.63836 | 7402 ft | 255 kts | 182° |
| 2026-05-08 14:09 | 45.00806 | 7.63735 | 8134 ft | 257 kts | 179° |
| 2026-05-08 14:09 | 44.99074 | 7.64299 | 8838 ft | 259 kts | 149° |
| 2026-05-08 14:10 | 44.97764 | 7.66052 | 9433 ft | 270 kts | 121° |
| 2026-05-08 14:10 | 44.97210 | 7.68645 | 9853 ft | 285 kts | 95° |
| 2026-05-08 14:10 | 44.97073 | 7.71480 | 10375 ft | 297 kts | 94° |
| 2026-05-08 14:10 | 44.96956 | 7.74507 | 10541 ft | 320 kts | 94° |
| 2026-05-08 14:11 | 44.96822 | 7.77729 | 10854 ft | 336 kts | 94° |
| 2026-05-08 14:11 | 44.96668 | 7.81055 | 11466 ft | 343 kts | 94° |
| 2026-05-08 14:11 | 44.96502 | 7.84437 | 12174 ft | 348 kts | 94° |
| 2026-05-08 14:11 | 44.96106 | 7.87813 | 12906 ft | 351 kts | 111° |
| 2026-05-08 14:12 | 44.94884 | 7.90790 | 13692 ft | 352 kts | 130° |
| 2026-05-08 14:12 | 44.93276 | 7.93419 | 14363 ft | 357 kts | 132° |
| 2026-05-08 14:12 | 44.91601 | 7.96043 | 15005 ft | 361 kts | 133° |
| 2026-05-08 14:12 | 44.89912 | 7.98687 | 15677 ft | 366 kts | 133° |
| 2026-05-08 14:13 | 44.88211 | 8.01383 | 16376 ft | 369 kts | 132° |
| 2026-05-08 14:13 | 44.86506 | 8.04114 | 17052 ft | 373 kts | 132° |
| 2026-05-08 14:13 | 44.84788 | 8.06874 | 17728 ft | 377 kts | 132° |
| 2026-05-08 14:13 | 44.83026 | 8.09645 | 18370 ft | 381 kts | 136° |
| 2026-05-08 14:14 | 44.80929 | 8.11948 | 18936 ft | 384 kts | 147° |
| 2026-05-08 14:14 | 44.78691 | 8.13991 | 19547 ft | 386 kts | 149° |
| 2026-05-08 14:14 | 44.76409 | 8.16012 | 20132 ft | 389 kts | 149° |
| 2026-05-08 14:14 | 44.74140 | 8.18028 | 20699 ft | 393 kts | 149° |
| 2026-05-08 14:15 | 44.71829 | 8.20105 | 21266 ft | 396 kts | 149° |
| 2026-05-08 14:15 | 44.69511 | 8.22211 | 21841 ft | 399 kts | 149° |
| 2026-05-08 14:15 | 44.67178 | 8.24347 | 22355 ft | 403 kts | 149° |
| 2026-05-08 14:15 | 44.64815 | 8.26518 | 22889 ft | 407 kts | 149° |
| 2026-05-08 14:16 | 44.62441 | 8.28704 | 23442 ft | 410 kts | 150° |
| 2026-05-08 14:16 | 44.60051 | 8.30903 | 23914 ft | 413 kts | 150° |
| 2026-05-08 14:16 | 44.57631 | 8.33128 | 24295 ft | 417 kts | 150° |
| 2026-05-08 14:16 | 44.55191 | 8.35369 | 24667 ft | 422 kts | 150° |
| 2026-05-08 14:17 | 44.52726 | 8.37630 | 25077 ft | 425 kts | 150° |
| 2026-05-08 14:17 | 44.50237 | 8.39912 | 25476 ft | 428 kts | 150° |
| 2026-05-08 14:17 | 44.47737 | 8.42201 | 25879 ft | 432 kts | 150° |
| 2026-05-08 14:17 | 44.45212 | 8.44511 | 26260 ft | 435 kts | 150° |
| 2026-05-08 14:18 | 44.42669 | 8.46835 | 26642 ft | 439 kts | 150° |
| 2026-05-08 14:18 | 44.40102 | 8.49177 | 27016 ft | 442 kts | 150° |
| 2026-05-08 14:18 | 44.37571 | 8.51668 | 27383 ft | 448 kts | 145° |
| 2026-05-08 14:18 | 44.35143 | 8.54430 | 27758 ft | 452 kts | 143° |
| 2026-05-08 14:19 | 44.32754 | 8.57318 | 28114 ft | 456 kts | 142° |
| 2026-05-08 14:19 | 44.30368 | 8.60248 | 28453 ft | 459 kts | 142° |
| 2026-05-08 14:19 | 44.27956 | 8.63197 | 28710 ft | 464 kts | 142° |
| 2026-05-08 14:20 | 44.22986 | 8.69155 | 29115 ft | 475 kts | 143° |
| 2026-05-08 14:20 | 44.20462 | 8.72139 | 29501 ft | 476 kts | 143° |
| 2026-05-08 14:20 | 44.17938 | 8.75108 | 30075 ft | 473 kts | 143° |
| 2026-05-08 14:20 | 44.15416 | 8.78063 | 30360 ft | 475 kts | 144° |
| 2026-05-08 14:21 | 44.12872 | 8.81035 | 30504 ft | 481 kts | 144° |
| 2026-05-08 14:21 | 44.10443 | 8.83868 | 30687 ft | 485 kts | 144° |
| 2026-05-08 14:21 | 44.07921 | 8.86810 | 30933 ft | 487 kts | 144° |
| 2026-05-08 14:21 | 44.05311 | 8.89850 | 31044 ft | 492 kts | 144° |
| 2026-05-08 14:22 | 44.02669 | 8.92925 | 31214 ft | 497 kts | 144° |
| 2026-05-08 14:22 | 44.00023 | 8.96005 | 31553 ft | 496 kts | 145° |
| 2026-05-08 14:22 | 43.97382 | 8.99078 | 31974 ft | 494 kts | 145° |
| 2026-05-08 14:22 | 43.94752 | 9.02135 | 32322 ft | 494 kts | 145° |
| 2026-05-08 14:23 | 43.92108 | 9.05201 | 32598 ft | 496 kts | 145° |
| 2026-05-08 14:23 | 43.89492 | 9.08229 | 32878 ft | 497 kts | 146° |
| 2026-05-08 14:23 | 43.86840 | 9.11296 | 33229 ft | 496 kts | 146° |
| 2026-05-08 14:23 | 43.84158 | 9.14396 | 33540 ft | 496 kts | 146° |
| 2026-05-08 14:24 | 43.81510 | 9.17451 | 33796 ft | 497 kts | 146° |
| 2026-05-08 14:24 | 43.78884 | 9.20476 | 34070 ft | 498 kts | 146° |
| 2026-05-08 14:24 | 43.76225 | 9.23537 | 34409 ft | 496 kts | 146° |
| 2026-05-08 14:24 | 43.73585 | 9.26576 | 34827 ft | 492 kts | 146° |
| 2026-05-08 14:25 | 43.70966 | 9.29587 | 35244 ft | 488 kts | 146° |
| 2026-05-08 14:25 | 43.68370 | 9.32567 | 35599 ft | 485 kts | 146° |
| 2026-05-08 14:25 | 43.65774 | 9.35541 | 35911 ft | 484 kts | 146° |
| 2026-05-08 14:25 | 43.63183 | 9.38504 | 36204 ft | 482 kts | 146° |
| 2026-05-08 14:26 | 43.61329 | 9.40623 | 36466 ft | 480 kts | 146° |
| 2026-05-08 14:26 | 43.58765 | 9.43550 | 36815 ft | 477 kts | 145° |
| 2026-05-08 14:26 | 43.56208 | 9.46467 | 37008 ft | 478 kts | 146° |
| 2026-05-08 14:27 | 43.54465 | 9.48451 | 36976 ft | 482 kts | 146° |
| 2026-05-08 14:27 | 43.49302 | 9.54322 | 36985 ft | 480 kts | 146° |
| 2026-05-08 14:28 | 43.44215 | 9.60102 | 36994 ft | 476 kts | 146° |
| 2026-05-08 14:28 | 43.39117 | 9.65877 | 36994 ft | 473 kts | 146° |
| 2026-05-08 14:29 | 43.34042 | 9.71613 | 36992 ft | 472 kts | 146° |
| 2026-05-08 14:29 | 43.28965 | 9.77340 | 36993 ft | 472 kts | 146° |
| 2026-05-08 14:30 | 43.23877 | 9.83064 | 36997 ft | 473 kts | 146° |
| 2026-05-08 14:30 | 43.18755 | 9.88754 | 36974 ft | 473 kts | 149° |
| 2026-05-08 14:31 | 43.13194 | 9.93397 | 36995 ft | 468 kts | 156° |
| 2026-05-08 14:31 | 43.07497 | 9.97728 | 36994 ft | 470 kts | 156° |
| 2026-05-08 14:32 | 42.98927 | 10.04330 | 36991 ft | 473 kts | 156° |
| 2026-05-08 14:32 | 42.93208 | 10.08792 | 36987 ft | 474 kts | 156° |
| 2026-05-08 14:33 | 42.87479 | 10.13261 | 36989 ft | 475 kts | 156° |
| 2026-05-08 14:33 | 42.81742 | 10.17725 | 36985 ft | 475 kts | 156° |
| 2026-05-08 14:34 | 42.76009 | 10.22174 | 36960 ft | 475 kts | 156° |
| 2026-05-08 14:34 | 42.70280 | 10.26609 | 36982 ft | 473 kts | 156° |
| 2026-05-08 14:35 | 42.64596 | 10.31000 | 36995 ft | 472 kts | 156° |
| 2026-05-08 14:35 | 42.58884 | 10.35402 | 36983 ft | 472 kts | 156° |
| 2026-05-08 14:36 | 42.53185 | 10.39786 | 36970 ft | 471 kts | 156° |
| 2026-05-08 14:36 | 42.47489 | 10.44158 | 36983 ft | 470 kts | 156° |
| 2026-05-08 14:37 | 42.41800 | 10.48515 | 36985 ft | 469 kts | 156° |
| 2026-05-08 14:37 | 42.36114 | 10.52861 | 36985 ft | 469 kts | 156° |
| 2026-05-08 14:38 | 42.30427 | 10.57198 | 36988 ft | 469 kts | 156° |
| 2026-05-08 14:38 | 42.24737 | 10.61529 | 36985 ft | 470 kts | 157° |
| 2026-05-08 14:39 | 42.19041 | 10.65856 | 36988 ft | 470 kts | 157° |
| 2026-05-08 14:39 | 42.13336 | 10.70181 | 36988 ft | 471 kts | 157° |
| 2026-05-08 14:40 | 42.07629 | 10.74500 | 36982 ft | 471 kts | 157° |
| 2026-05-08 14:40 | 42.01795 | 10.78384 | 36996 ft | 464 kts | 165° |
| 2026-05-08 14:41 | 41.95773 | 10.81519 | 36987 ft | 464 kts | 166° |
| 2026-05-08 14:41 | 41.89731 | 10.84625 | 36990 ft | 466 kts | 166° |
| 2026-05-08 14:42 | 41.83732 | 10.87782 | 36986 ft | 467 kts | 166° |
| 2026-05-08 14:42 | 41.77694 | 10.90990 | 36984 ft | 467 kts | 166° |
| 2026-05-08 14:43 | 41.71648 | 10.94200 | 36988 ft | 467 kts | 166° |
| 2026-05-08 14:43 | 41.65601 | 10.97400 | 36967 ft | 468 kts | 166° |
| 2026-05-08 14:44 | 41.59548 | 11.00595 | 36972 ft | 467 kts | 166° |
| 2026-05-08 14:44 | 41.53501 | 11.03782 | 36997 ft | 467 kts | 166° |
| 2026-05-08 14:45 | 41.47453 | 11.06962 | 36990 ft | 467 kts | 166° |
| 2026-05-08 14:45 | 41.41405 | 11.10135 | 36987 ft | 466 kts | 166° |
| 2026-05-08 14:46 | 41.35369 | 11.13295 | 36989 ft | 466 kts | 166° |
| 2026-05-08 14:46 | 41.29340 | 11.16447 | 36990 ft | 466 kts | 166° |
| 2026-05-08 14:47 | 41.23312 | 11.19593 | 36988 ft | 465 kts | 166° |
| 2026-05-08 14:47 | 41.17291 | 11.22729 | 36987 ft | 464 kts | 167° |
| 2026-05-08 14:48 | 41.11274 | 11.25855 | 36994 ft | 464 kts | 167° |
| 2026-05-08 14:48 | 41.05264 | 11.28973 | 36991 ft | 464 kts | 167° |
| 2026-05-08 14:49 | 40.99249 | 11.32087 | 36960 ft | 464 kts | 167° |
| 2026-05-08 14:49 | 40.93240 | 11.35193 | 36983 ft | 464 kts | 167° |
| 2026-05-08 14:50 | 40.87252 | 11.38281 | 36993 ft | 465 kts | 167° |
| 2026-05-08 14:50 | 40.81209 | 11.41391 | 36991 ft | 467 kts | 167° |
| 2026-05-08 14:51 | 40.76101 | 11.44013 | 36971 ft | 467 kts | 168° |
| 2026-05-08 14:51 | 40.70044 | 11.47120 | 36987 ft | 468 kts | 168° |
| 2026-05-08 14:52 | 40.60931 | 11.51783 | 36990 ft | 469 kts | 168° |
| 2026-05-08 14:53 | 40.54846 | 11.54891 | 36975 ft | 469 kts | 168° |
| 2026-05-08 14:53 | 40.48761 | 11.57992 | 36996 ft | 469 kts | 168° |
| 2026-05-08 14:54 | 40.42681 | 11.61085 | 36991 ft | 468 kts | 169° |
| 2026-05-08 14:54 | 40.36608 | 11.64167 | 36994 ft | 468 kts | 169° |
| 2026-05-08 14:55 | 40.31387 | 11.66806 | 36963 ft | 467 kts | 169° |
| 2026-05-08 14:55 | 40.25330 | 11.69862 | 36983 ft | 466 kts | 169° |
| 2026-05-08 14:56 | 40.19290 | 11.72905 | 37007 ft | 465 kts | 169° |
| 2026-05-08 14:56 | 40.13247 | 11.75944 | 36985 ft | 465 kts | 169° |
| 2026-05-08 14:57 | 40.07204 | 11.78978 | 36986 ft | 465 kts | 169° |
| 2026-05-08 14:57 | 40.01165 | 11.82006 | 36997 ft | 465 kts | 169° |
| 2026-05-08 14:58 | 39.95119 | 11.85037 | 36990 ft | 465 kts | 169° |
| 2026-05-08 14:58 | 39.89073 | 11.88037 | 36986 ft | 462 kts | 172° |
| 2026-05-08 14:58 | 39.86006 | 11.89074 | 36965 ft | 449 kts | 181° |
| 2026-05-08 14:59 | 39.82995 | 11.89448 | 36994 ft | 435 kts | 189° |
| 2026-05-08 14:59 | 39.73857 | 11.89762 | 36988 ft | 437 kts | 189° |
| 2026-05-08 15:00 | 39.67812 | 11.90001 | 36999 ft | 439 kts | 189° |
| 2026-05-08 15:00 | 39.61698 | 11.90275 | 36977 ft | 440 kts | 189° |
| 2026-05-08 15:01 | 39.55566 | 11.90560 | 36990 ft | 441 kts | 189° |
| 2026-05-08 15:01 | 39.49419 | 11.90843 | 36731 ft | 446 kts | 189° |
| 2026-05-08 15:02 | 39.46314 | 11.90983 | 36276 ft | 446 kts | 188° |
| 2026-05-08 15:02 | 39.43219 | 11.91129 | 35730 ft | 443 kts | 188° |
| 2026-05-08 15:02 | 39.40138 | 11.91274 | 35198 ft | 441 kts | 188° |
| 2026-05-08 15:02 | 39.37093 | 11.91420 | 34808 ft | 436 kts | 188° |
| 2026-05-08 15:03 | 39.34072 | 11.91563 | 34393 ft | 432 kts | 188° |
| 2026-05-08 15:03 | 39.31085 | 11.91702 | 33981 ft | 428 kts | 188° |
| 2026-05-08 15:03 | 39.28118 | 11.91839 | 33513 ft | 425 kts | 188° |
| 2026-05-08 15:03 | 39.25177 | 11.91973 | 33082 ft | 421 kts | 188° |
| 2026-05-08 15:04 | 39.22270 | 11.92106 | 32668 ft | 416 kts | 188° |
| 2026-05-08 15:04 | 39.19405 | 11.92236 | 32270 ft | 413 kts | 187° |
| 2026-05-08 15:04 | 39.16545 | 11.92366 | 31871 ft | 408 kts | 187° |
| 2026-05-08 15:04 | 39.13722 | 11.92494 | 31477 ft | 405 kts | 187° |
| 2026-05-08 15:05 | 39.10911 | 11.92621 | 31084 ft | 402 kts | 187° |
| 2026-05-08 15:05 | 39.08122 | 11.92747 | 30699 ft | 400 kts | 187° |
| 2026-05-08 15:05 | 39.05350 | 11.92872 | 30319 ft | 397 kts | 186° |
| 2026-05-08 15:05 | 39.02594 | 11.92996 | 29916 ft | 395 kts | 186° |
| 2026-05-08 15:06 | 38.99853 | 11.93120 | 29478 ft | 393 kts | 186° |
| 2026-05-08 15:06 | 38.97132 | 11.93244 | 29055 ft | 390 kts | 186° |
| 2026-05-08 15:06 | 38.94416 | 11.93365 | 28335 ft | 394 kts | 186° |
| 2026-05-08 15:06 | 38.91664 | 11.93484 | 27716 ft | 396 kts | 186° |
| 2026-05-08 15:07 | 38.88915 | 11.93608 | 27251 ft | 394 kts | 186° |
| 2026-05-08 15:07 | 38.86182 | 11.93734 | 26834 ft | 391 kts | 186° |
| 2026-05-08 15:07 | 38.83472 | 11.93859 | 26418 ft | 389 kts | 186° |
| 2026-05-08 15:07 | 38.80776 | 11.93983 | 26013 ft | 386 kts | 186° |
| 2026-05-08 15:08 | 38.78104 | 11.94104 | 25615 ft | 383 kts | 187° |
| 2026-05-08 15:08 | 38.76338 | 11.94184 | 25354 ft | 382 kts | 187° |
| 2026-05-08 15:08 | 38.72804 | 11.94342 | 24810 ft | 379 kts | 187° |
| 2026-05-08 15:08 | 38.70177 | 11.94460 | 24429 ft | 377 kts | 187° |
| 2026-05-08 15:09 | 38.67563 | 11.94577 | 24032 ft | 375 kts | 187° |
| 2026-05-08 15:09 | 38.64958 | 11.94693 | 23643 ft | 374 kts | 187° |
| 2026-05-08 15:09 | 38.62366 | 11.94809 | 23190 ft | 372 kts | 187° |
| 2026-05-08 15:09 | 38.59785 | 11.94925 | 22778 ft | 370 kts | 187° |
| 2026-05-08 15:10 | 38.57219 | 11.95109 | 22367 ft | 373 kts | 180° |
| 2026-05-08 15:10 | 38.54752 | 11.96220 | 21979 ft | 391 kts | 158° |
| 2026-05-08 15:10 | 38.52453 | 11.98090 | 21622 ft | 391 kts | 153° |
| 2026-05-08 15:10 | 38.50213 | 12.00048 | 21215 ft | 390 kts | 153° |
| 2026-05-08 15:11 | 38.47986 | 12.02010 | 20830 ft | 388 kts | 153° |
| 2026-05-08 15:11 | 38.45767 | 12.03945 | 20457 ft | 385 kts | 153° |
| 2026-05-08 15:11 | 38.43550 | 12.05850 | 20090 ft | 383 kts | 153° |
| 2026-05-08 15:11 | 38.41343 | 12.07730 | 19717 ft | 380 kts | 153° |
| 2026-05-08 15:12 | 38.39149 | 12.09590 | 19365 ft | 378 kts | 153° |
| 2026-05-08 15:12 | 38.36960 | 12.11442 | 19006 ft | 377 kts | 153° |
| 2026-05-08 15:12 | 38.34778 | 12.13288 | 18630 ft | 375 kts | 153° |
| 2026-05-08 15:12 | 38.32609 | 12.15124 | 18247 ft | 375 kts | 153° |
| 2026-05-08 15:13 | 38.30443 | 12.16959 | 17837 ft | 373 kts | 153° |
| 2026-05-08 15:13 | 38.28290 | 12.18781 | 17444 ft | 371 kts | 153° |
| 2026-05-08 15:13 | 38.26147 | 12.20595 | 17064 ft | 368 kts | 153° |
| 2026-05-08 15:13 | 38.24019 | 12.22394 | 16676 ft | 366 kts | 153° |
| 2026-05-08 15:14 | 38.21905 | 12.24181 | 16324 ft | 363 kts | 153° |
| 2026-05-08 15:14 | 38.19808 | 12.25952 | 15969 ft | 361 kts | 153° |
| 2026-05-08 15:14 | 38.17722 | 12.27711 | 15614 ft | 359 kts | 153° |
| 2026-05-08 15:14 | 38.15645 | 12.29461 | 15259 ft | 357 kts | 153° |
| 2026-05-08 15:15 | 38.14274 | 12.30617 | 15024 ft | 356 kts | 153° |
| 2026-05-08 15:15 | 38.12213 | 12.32352 | 14667 ft | 355 kts | 153° |
| 2026-05-08 15:15 | 38.10162 | 12.34077 | 14314 ft | 353 kts | 153° |
| 2026-05-08 15:15 | 38.08116 | 12.35797 | 13945 ft | 352 kts | 153° |
| 2026-05-08 15:16 | 38.06076 | 12.37511 | 13572 ft | 351 kts | 153° |
| 2026-05-08 15:16 | 38.04044 | 12.39217 | 13194 ft | 349 kts | 152° |
| 2026-05-08 15:16 | 38.02026 | 12.40911 | 12823 ft | 347 kts | 152° |
| 2026-05-08 15:16 | 38.00018 | 12.42596 | 12463 ft | 345 kts | 152° |
| 2026-05-08 15:17 | 37.98025 | 12.44267 | 12096 ft | 342 kts | 152° |
| 2026-05-08 15:17 | 37.96046 | 12.45925 | 11726 ft | 340 kts | 152° |
| 2026-05-08 15:17 | 37.94078 | 12.47573 | 11394 ft | 338 kts | 152° |
| 2026-05-08 15:17 | 37.92120 | 12.49210 | 11056 ft | 336 kts | 152° |
| 2026-05-08 15:18 | 37.90174 | 12.50846 | 10720 ft | 335 kts | 150° |
| 2026-05-08 15:18 | 37.88507 | 12.52929 | 10457 ft | 339 kts | 131° |
| 2026-05-08 15:18 | 37.87112 | 12.55308 | 10268 ft | 333 kts | 130° |
| 2026-05-08 15:18 | 37.85753 | 12.57640 | 10131 ft | 325 kts | 130° |
| 2026-05-08 15:19 | 37.84422 | 12.59907 | 10003 ft | 318 kts | 131° |
| 2026-05-08 15:19 | 37.83103 | 12.62134 | 9737 ft | 315 kts | 131° |
| 2026-05-08 15:19 | 37.81786 | 12.64341 | 9436 ft | 313 kts | 131° |
| 2026-05-08 15:19 | 37.80473 | 12.66533 | 9149 ft | 311 kts | 131° |
| 2026-05-08 15:20 | 37.79169 | 12.68705 | 8881 ft | 309 kts | 131° |
| 2026-05-08 15:20 | 37.77872 | 12.70863 | 8597 ft | 308 kts | 130° |
| 2026-05-08 15:20 | 37.76578 | 12.73015 | 8305 ft | 307 kts | 130° |
| 2026-05-08 15:20 | 37.75289 | 12.75156 | 8013 ft | 305 kts | 130° |
| 2026-05-08 15:21 | 37.74004 | 12.77289 | 7722 ft | 305 kts | 130° |
| 2026-05-08 15:21 | 37.72719 | 12.79419 | 7410 ft | 306 kts | 130° |
| 2026-05-08 15:21 | 37.71626 | 12.81731 | 7036 ft | 312 kts | 108° |
| 2026-05-08 15:21 | 37.71515 | 12.84419 | 6701 ft | 313 kts | 76° |
| 2026-05-08 15:22 | 37.72423 | 12.86860 | 6383 ft | 307 kts | 46° |
| 2026-05-08 15:22 | 37.74062 | 12.88474 | 6037 ft | 297 kts | 19° |
| 2026-05-08 15:22 | 37.76030 | 12.88994 | 5702 ft | 285 kts | 354° |
| 2026-05-08 15:22 | 37.77872 | 12.88437 | 5325 ft | 269 kts | 331° |
| 2026-05-08 15:23 | 37.79369 | 12.87135 | 4994 ft | 256 kts | 310° |
| 2026-05-08 15:23 | 37.80103 | 12.85168 | 4615 ft | 250 kts | 275° |
| 2026-05-08 15:23 | 37.79742 | 12.83053 | 4284 ft | 249 kts | 249° |
| 2026-05-08 15:23 | 37.79076 | 12.81013 | 3943 ft | 252 kts | 253° |
| 2026-05-08 15:24 | 37.78576 | 12.78899 | 3583 ft | 251 kts | 258° |
| 2026-05-08 15:24 | 37.78154 | 12.76775 | 3229 ft | 248 kts | 258° |
| 2026-05-08 15:24 | 37.77673 | 12.74713 | 3015 ft | 239 kts | 248° |
| 2026-05-08 15:24 | 37.76883 | 12.72938 | 2986 ft | 223 kts | 247° |
| 2026-05-08 15:25 | 37.76708 | 12.71155 | 2969 ft | 195 kts | 291° |
| 2026-05-08 15:25 | 37.77490 | 12.69919 | 2975 ft | 178 kts | 329° |
| 2026-05-08 15:25 | 37.78453 | 12.68925 | 2985 ft | 183 kts | 311° |
| 2026-05-08 15:25 | 37.79306 | 12.67730 | 2987 ft | 183 kts | 317° |
| 2026-05-08 15:26 | 37.80201 | 12.66588 | 3003 ft | 182 kts | 311° |
| 2026-05-08 15:26 | 37.80999 | 12.65352 | 2969 ft | 181 kts | 309° |
| 2026-05-08 15:26 | 37.81786 | 12.64074 | 2804 ft | 187 kts | 308° |
| 2026-05-08 15:26 | 37.82583 | 12.62771 | 2559 ft | 187 kts | 308° |
| 2026-05-08 15:27 | 37.83369 | 12.61483 | 2334 ft | 182 kts | 310° |
| 2026-05-08 15:27 | 37.84138 | 12.60227 | 2100 ft | 180 kts | 309° |
| 2026-05-08 15:27 | 37.84894 | 12.58990 | 1847 ft | 173 kts | 310° |
| 2026-05-08 15:27 | 37.85606 | 12.57826 | 1618 ft | 161 kts | 309° |
| 2026-05-08 15:28 | 37.86272 | 12.56739 | 1395 ft | 151 kts | 308° |
| 2026-05-08 15:28 | 37.86889 | 12.55728 | 1194 ft | 141 kts | 308° |
| 2026-05-08 15:28 | 37.87480 | 12.54766 | 1065 ft | 138 kts | 308° |
| 2026-05-08 15:28 | 37.88076 | 12.53794 | 858 ft | 142 kts | 306° |
| 2026-05-08 15:29 | 37.88677 | 12.52810 | 660 ft | 141 kts | 306° |
| 2026-05-08 15:29 | 37.89292 | 12.51800 | 496 ft | 145 kts | 305° |
| 2026-05-08 15:29 | 37.89909 | 12.50789 | 262 ft | 148 kts | 310° |
| 2026-05-08 15:29 | 37.90534 | 12.49790 | 85 ft | 142 kts | 306° |
| 2026-05-08 15:30 | 37.91083 | 12.48890 | 28 ft | 103 kts | 307° |
| 2026-05-08 15:30 | 37.91388 | 12.48395 | 25 ft | 39 kts | 309° |
| 2026-05-08 15:30 | 37.91443 | 12.48309 | 21 ft | 4 kts | 310° |
| 2026-05-08 15:30 | 37.91464 | 12.48247 | 20 ft | 4 kts | 158° |
| 2026-05-08 15:31 | 37.91445 | 12.48278 | 20 ft | 5 kts | 118° |
| 2026-05-08 15:31 | 37.91405 | 12.48366 | 24 ft | 13 kts | 124° |
| 2026-05-08 15:31 | 37.91350 | 12.48458 | 27 ft | 15 kts | 127° |
| 2026-05-08 15:31 | 37.91264 | 12.48598 | 27 ft | 24 kts | 128° |
| 2026-05-08 15:32 | 37.91160 | 12.48766 | 28 ft | 23 kts | 126° |
| 2026-05-08 15:32 | 37.91059 | 12.48929 | 26 ft | 25 kts | 128° |
| 2026-05-08 15:32 | 37.90937 | 12.49128 | 27 ft | 31 kts | 128° |
| 2026-05-08 15:32 | 37.90819 | 12.49314 | 31 ft | 23 kts | 129° |
| 2026-05-08 15:33 | 37.90723 | 12.49420 | 33 ft | 17 kts | 155° |
| 2026-05-08 15:33 | 37.90615 | 12.49474 | 35 ft | 16 kts | 160° |
| 2026-05-08 15:33 | 37.90506 | 12.49531 | 33 ft | 18 kts | 157° |
| 2026-05-08 15:33 | 37.90416 | 12.49635 | 33 ft | 18 kts | 125° |
| 2026-05-08 15:34 | 37.90350 | 12.49735 | 32 ft | 12 kts | 148° |
| 2026-05-08 15:34 | 37.90302 | 12.49724 | 28 ft | 4 kts | 216° |
| 2026-05-08 15:34 | 37.90268 | 12.49725 | 29 ft | 6 kts | 163° |
| 2026-05-08 15:34 | 37.90247 | 12.49685 | 29 ft | 6 kts | 270° |
| 2026-05-08 15:35 | 37.90245 | 12.49667 | 29 ft | 0 kts | 263° |